Time;durP1;ratioP1;P1;durP2;ratioP2;P2;SDS_P1;SDS_P2;PMS_P1;PMS_P2;Temp;Humidity;BMP_temperature;BMP_pressure;BME280_temperature;BME280_humidity;BME280_pressure;Samples;Min_cycle;Max_cycle;Signal;HPM_P1;HPM_P2
2022/11/21 00:01:31;;;;;;;108.13;50.42;;;;;;;2.25;100.00;100432.28;5009261;28;20033;-60
2022/11/21 00:03:56;;;;;;;131.68;50.95;;;;;;;2.36;100.00;100448.69;5010241;28;20030;-60
2022/11/21 00:06:22;;;;;;;142.55;52.92;;;;;;;2.39;100.00;100451.28;5010332;28;20026;-60
2022/11/21 00:08:47;;;;;;;125.07;49.67;;;;;;;2.55;100.00;100484.06;5009020;28;20095;-60
2022/11/21 00:11:14;;;;;;;126.72;51.80;;;;;;;2.51;100.00;100473.72;5009290;28;20082;-60
2022/11/21 00:13:39;;;;;;;149.77;56.15;;;;;;;2.52;100.00;100478.91;4992665;28;20495;-60
2022/11/21 00:16:06;;;;;;;102.38;49.80;;;;;;;2.44;100.00;100466.81;5010048;28;20073;-60
2022/11/21 00:18:33;;;;;;;139.43;52.50;;;;;;;2.47;100.00;100470.28;5008850;28;20038;-61
2022/11/21 00:21:03;;;;;;;128.75;51.78;;;;;;;2.12;100.00;100409.88;5009948;28;20048;-61
2022/11/21 00:23:28;;;;;;;112.23;50.63;;;;;;;2.12;100.00;100410.72;5009934;28;20049;-60
2022/11/21 00:25:54;;;;;;;119.22;52.13;;;;;;;2.54;100.00;100494.50;5010227;28;20394;-60
2022/11/21 00:28:19;;;;;;;120.03;51.95;;;;;;;2.59;100.00;100487.53;5010035;28;20034;-59
2022/11/21 00:30:44;;;;;;;118.60;51.45;;;;;;;2.57;100.00;100481.50;5009924;28;20482;-60
2022/11/21 00:33:10;;;;;;;130.07;52.53;;;;;;;2.22;100.00;100430.56;5009835;28;20038;-60
2022/11/21 00:35:35;;;;;;;136.27;54.10;;;;;;;2.19;100.00;100429.72;5009918;28;20099;-60
2022/11/21 00:38:00;;;;;;;142.80;56.95;;;;;;;2.53;100.00;100490.16;5009813;28;20041;-60
2022/11/21 00:40:25;;;;;;;152.43;58.22;;;;;;;2.54;100.00;100500.53;5009905;28;20037;-59
2022/11/21 00:42:51;;;;;;;179.13;59.03;;;;;;;2.05;100.00;100409.03;5009053;28;20475;-60
2022/11/21 00:45:16;;;;;;;199.85;63.15;;;;;;;2.46;100.00;100470.28;5009887;28;20034;-60
2022/11/21 00:47:41;;;;;;;222.75;65.50;;;;;;;2.18;100.00;100433.22;5009670;28;20033;-60
2022/11/21 00:50:08;;;;;;;254.60;70.07;;;;;;;2.52;100.00;100484.09;5010071;28;20121;-61
2022/11/21 00:52:33;;;;;;;212.52;67.13;;;;;;;2.34;100.00;100452.16;5009500;28;20615;-59
2022/11/21 00:54:59;;;;;;;233.75;69.72;;;;;;;2.54;100.00;100482.34;5009505;28;20140;-60
2022/11/21 00:57:24;;;;;;;245.52;71.32;;;;;;;2.57;100.00;100479.72;5008647;28;20125;-60
2022/11/21 00:59:49;;;;;;;234.00;69.78;;;;;;;2.55;100.00;100475.41;5009689;28;20086;-60
2022/11/21 01:02:15;;;;;;;235.00;69.75;;;;;;;2.17;100.00;100395.13;5008547;28;20050;-60
2022/11/21 01:04:40;;;;;;;279.23;73.40;;;;;;;2.19;100.00;100394.22;5009544;28;20034;-60
2022/11/21 01:07:05;;;;;;;245.50;72.00;;;;;;;2.37;100.00;100429.63;5009378;28;20327;-60
2022/11/21 01:09:31;;;;;;;313.58;76.20;;;;;;;2.51;100.00;100456.38;5009722;28;20037;-60
2022/11/21 01:11:56;;;;;;;283.40;77.15;;;;;;;2.43;100.00;100439.13;5009561;28;20118;-60
2022/11/21 01:14:22;;;;;;;339.95;81.43;;;;;;;2.56;100.00;100475.44;5009500;28;20052;-60
2022/11/21 01:16:47;;;;;;;335.65;76.20;;;;;;;2.57;100.00;100464.13;5009180;28;20079;-61
2022/11/21 01:19:13;;;;;;;375.13;81.82;;;;;;;2.57;100.00;100463.31;5009327;28;20488;-60
2022/11/21 01:21:38;;;;;;;378.27;84.63;;;;;;;2.60;100.00;100466.72;5009241;28;20045;-60
2022/11/21 01:24:03;;;;;;;297.05;77.53;;;;;;;2.56;100.00;100454.63;5009101;28;20033;-60
2022/11/21 01:26:30;;;;;;;284.58;73.40;;;;;;;2.64;100.00;100458.03;5009183;28;20061;-61
2022/11/21 01:28:59;;;;;;;271.67;72.32;;;;;;;2.51;100.00;100433.00;5008059;28;20038;-60
2022/11/21 01:31:27;;;;;;;268.33;70.93;;;;;;;2.65;100.00;100464.09;5008952;28;20058;-61
2022/11/21 01:33:53;;;;;;;223.45;69.05;;;;;;;2.53;100.00;100446.88;4991217;28;20045;-60
2022/11/21 01:36:21;;;;;;;181.43;65.20;;;;;;;2.30;100.00;100408.91;5008969;28;20482;-60
2022/11/21 01:38:48;;;;;;;237.93;67.80;;;;;;;2.60;100.00;100458.06;5009082;28;20033;-60
2022/11/21 01:41:17;;;;;;;242.13;69.57;;;;;;;2.47;100.00;100441.69;5009050;28;20183;-60
2022/11/21 01:43:42;;;;;;;198.65;65.70;;;;;;;2.54;100.00;100469.34;5009105;28;20034;-59
2022/11/21 01:46:07;;;;;;;222.95;68.38;;;;;;;2.58;100.00;100465.88;5007497;28;20049;-59
2022/11/21 01:49:05;;;;;;;202.13;65.78;;;;;;;2.56;100.00;100452.03;5009091;28;20111;-59
2022/11/21 01:51:42;;;;;;;236.00;68.85;;;;;;;2.52;100.00;100454.66;5009073;28;20470;-59
2022/11/21 01:54:29;;;;;;;260.67;74.07;;;;;;;2.50;100.00;100461.59;5011682;28;20358;-60
2022/11/21 01:57:12;;;;;;;250.88;68.82;;;;;;;2.43;100.00;100452.09;5012228;28;20038;-60
2022/11/21 01:59:55;;;;;;;250.98;70.03;;;;;;;2.08;100.00;100393.44;5011127;28;20478;-60
2022/11/21 02:02:23;;;;;;;273.58;68.93;;;;;;;2.42;100.00;100450.41;5012350;28;20079;-60
2022/11/21 02:04:50;;;;;;;272.45;73.43;;;;;;;2.45;100.00;100464.19;5010907;28;20037;-60
2022/11/21 02:07:17;;;;;;;260.90;71.80;;;;;;;2.06;100.00;100390.00;5012109;28;20056;-60
2022/11/21 02:09:44;;;;;;;235.15;66.07;;;;;;;2.08;100.00;100392.56;5010911;28;20087;-60
2022/11/21 02:12:18;;;;;;;292.38;72.43;;;;;;;2.44;100.00;100446.03;5012168;28;20030;-60
2022/11/21 02:14:43;;;;;;;281.85;74.07;;;;;;;2.32;100.00;100420.13;5010948;28;20087;-59
2022/11/21 02:17:09;;;;;;;286.00;71.03;;;;;;;2.47;100.00;100452.09;5012039;28;20026;-60
2022/11/21 02:19:51;;;;;;;284.98;71.43;;;;;;;2.55;100.00;100460.69;5012215;28;20074;-60
2022/11/21 02:22:41;;;;;;;264.67;67.10;;;;;;;2.56;100.00;100474.56;5011796;28;20125;-59
2022/11/21 02:25:07;;;;;;;260.95;68.28;;;;;;;2.58;100.00;100488.41;5011955;28;20585;-59
2022/11/21 02:27:32;;;;;;;221.25;66.65;;;;;;;2.46;100.00;100450.34;5012134;28;20105;-61
2022/11/21 02:29:58;;;;;;;301.20;71.38;;;;;;;2.17;100.00;100395.97;5010422;28;20117;-60
2022/11/21 02:32:31;;;;;;;249.20;67.55;;;;;;;2.54;100.00;100464.16;5010682;28;20089;-60
2022/11/21 02:34:56;;;;;;;238.18;67.57;;;;;;;2.55;100.00;100471.09;5011715;28;20409;-60
2022/11/21 02:37:22;;;;;;;260.08;68.43;;;;;;;2.55;100.00;100458.09;5011778;28;20048;-60
2022/11/21 02:39:48;;;;;;;279.17;70.38;;;;;;;2.56;100.00;100462.44;5010617;28;20041;-61
2022/11/21 02:42:18;;;;;;;281.25;70.47;;;;;;;2.39;100.00;100417.50;5011723;28;20034;-60
2022/11/21 02:44:55;;;;;;;276.05;69.45;;;;;;;2.59;100.00;100441.63;5010444;28;20090;-60
2022/11/21 02:47:22;;;;;;;200.43;64.22;;;;;;;2.55;100.00;100429.53;5010240;28;20648;-59
2022/11/21 02:50:13;;;;;;;236.05;67.43;;;;;;;2.58;100.00;100441.63;5010077;28;20063;-60
2022/11/21 02:52:39;;;;;;;258.27;68.18;;;;;;;2.58;100.00;100437.28;5010248;28;20041;-59
2022/11/21 02:55:05;;;;;;;270.83;70.90;;;;;;;2.55;100.00;100432.13;5011570;28;20046;-60
2022/11/21 02:57:30;;;;;;;260.77;67.25;;;;;;;2.49;100.00;100416.56;5011387;28;20485;-59
2022/11/21 02:59:56;;;;;;;267.92;68.43;;;;;;;2.48;100.00;100416.59;5010255;28;20038;-59
2022/11/21 03:02:21;;;;;;;212.07;64.95;;;;;;;2.56;100.00;100433.00;5009946;28;20049;-60
2022/11/21 03:04:46;;;;;;;217.20;63.38;;;;;;;2.53;100.00;100422.63;5010475;28;20034;-61
2022/11/21 03:07:12;;;;;;;191.95;60.25;;;;;;;2.18;100.00;100365.69;5011213;28;20034;-60
2022/11/21 03:09:37;;;;;;;176.77;59.70;;;;;;;2.57;100.00;100439.91;5011219;28;20036;-61
2022/11/21 03:12:07;;;;;;;190.68;62.03;;;;;;;2.59;100.00;100444.22;5009889;28;20033;-60
2022/11/21 03:14:33;;;;;;;230.55;65.78;;;;;;;2.59;100.00;100422.56;5011151;28;20037;-60
2022/11/21 03:16:58;;;;;;;252.68;67.53;;;;;;;2.60;100.00;100419.94;5011188;28;20049;-60
2022/11/21 03:19:24;;;;;;;345.50;75.47;;;;;;;2.63;100.00;100437.25;5011202;28;20038;-60
2022/11/21 03:21:49;;;;;;;328.35;72.65;;;;;;;2.52;100.00;100398.38;5011050;28;20121;-60
2022/11/21 03:24:14;;;;;;;264.55;68.32;;;;;;;2.65;100.00;100423.41;5009677;28;20411;-60
2022/11/21 03:26:40;;;;;;;429.73;81.10;;;;;;;2.50;100.00;100400.13;5010842;28;20046;-59
2022/11/21 03:29:06;;;;;;;361.98;78.00;;;;;;;2.63;100.00;100421.66;5010973;28;20038;-60
2022/11/21 03:31:31;;;;;;;373.70;81.07;;;;;;;2.53;100.00;100387.09;5010933;28;20046;-60
2022/11/21 03:33:56;;;;;;;378.50;76.65;;;;;;;2.29;100.00;100348.31;5010848;28;20052;-60
2022/11/21 03:36:22;;;;;;;266.58;67.15;;;;;;;2.55;100.00;100397.47;5009551;28;20026;-60
2022/11/21 03:38:47;;;;;;;397.42;78.45;;;;;;;2.36;100.00;100352.59;5010759;28;20034;-61
2022/11/21 03:41:30;;;;;;;391.13;76.70;;;;;;;2.69;100.00;100412.09;5010658;28;20464;-61
2022/11/21 03:43:56;;;;;;;380.90;74.47;;;;;;;2.73;100.00;100426.81;5010798;28;20217;-60
2022/11/21 03:46:22;;;;;;;326.20;72.68;;;;;;;2.74;100.00;100409.47;5009301;28;20040;-59
2022/11/21 03:48:47;;;;;;;389.30;76.90;;;;;;;2.37;100.00;100341.31;5010628;28;20037;-60
2022/11/21 03:51:12;;;;;;;377.55;76.35;;;;;;;2.65;100.00;100389.63;5009601;28;20125;-63
2022/11/21 03:53:37;;;;;;;264.42;65.63;;;;;;;2.58;100.00;100377.53;5009186;28;20458;-61
2022/11/21 03:56:03;;;;;;;225.27;62.28;;;;;;;2.72;100.00;100399.06;5010652;28;20564;-60
2022/11/21 03:58:28;;;;;;;262.02;64.18;;;;;;;2.38;100.00;100340.47;5010174;28;20042;-59
2022/11/21 04:00:53;;;;;;;222.55;58.08;;;;;;;2.65;100.00;100384.44;5010517;28;21067;-60
2022/11/21 04:03:19;;;;;;;258.20;62.45;;;;;;;2.51;100.00;100369.81;5010562;28;20114;-60
2022/11/21 04:05:44;;;;;;;236.48;60.13;;;;;;;2.58;100.00;100382.72;5010369;28;20036;-59
2022/11/21 04:08:09;;;;;;;148.35;51.97;;;;;;;2.23;100.00;100338.81;5010591;28;20428;-60
2022/11/21 04:10:35;;;;;;;279.55;64.63;;;;;;;2.56;100.00;100388.81;5010636;28;20034;-59
2022/11/21 04:13:00;;;;;;;323.38;66.10;;;;;;;2.54;100.00;100396.59;5009238;28;20070;-59
2022/11/21 04:15:25;;;;;;;180.23;54.47;;;;;;;2.54;100.00;100391.41;5009153;28;20227;-59
2022/11/21 04:17:51;;;;;;;377.77;74.63;;;;;;;2.18;100.00;100329.34;5008480;28;20044;-61
2022/11/21 04:20:16;;;;;;;392.25;72.70;;;;;;;2.14;100.00;100327.63;5008718;28;20447;-61
2022/11/21 04:22:41;;;;;;;207.07;54.67;;;;;;;2.54;100.00;100388.81;4992298;28;20034;-60
2022/11/21 04:25:07;;;;;;;318.05;64.53;;;;;;;2.18;100.00;100322.44;5010127;28;20535;-60
2022/11/21 04:27:32;;;;;;;271.85;59.35;;;;;;;2.51;100.00;100382.81;5008958;28;20482;-61
2022/11/21 04:29:57;;;;;;;294.38;64.13;;;;;;;2.51;100.00;100388.00;5009984;28;20401;-60
2022/11/21 04:32:23;;;;;;;279.63;62.88;;;;;;;2.08;100.00;100305.16;5009616;28;20080;-60
2022/11/21 04:34:48;;;;;;;368.40;67.40;;;;;;;2.51;100.00;100377.59;5008426;28;20034;-60
2022/11/21 04:37:13;;;;;;;361.25;71.00;;;;;;;2.49;100.00;100390.59;5009858;28;20041;-59
2022/11/21 04:39:39;;;;;;;224.93;55.67;;;;;;;2.50;100.00;100375.88;5009610;28;20033;-60
2022/11/21 04:42:04;;;;;;;338.30;64.60;;;;;;;2.50;100.00;100384.53;5009649;28;20042;-60
2022/11/21 04:44:29;;;;;;;356.90;68.35;;;;;;;2.10;100.00;100310.38;5008708;28;20078;-59
2022/11/21 04:46:54;;;;;;;294.73;65.00;;;;;;;2.22;100.00;100321.50;5010051;28;20044;-59
2022/11/21 04:49:20;;;;;;;281.42;62.92;;;;;;;2.47;100.00;100360.31;5009835;28;20045;-60
2022/11/21 04:51:45;;;;;;;193.30;53.67;;;;;;;2.11;100.00;100292.16;5009392;28;20391;-61
2022/11/21 04:54:10;;;;;;;372.10;69.72;;;;;;;2.39;100.00;100346.53;5008276;28;20042;-59
2022/11/21 04:56:36;;;;;;;182.50;50.03;;;;;;;2.07;100.00;100289.63;5009720;28;20049;-61
2022/11/21 04:59:02;;;;;;;382.90;71.22;;;;;;;2.33;100.00;100357.81;5009480;28;20421;-61
2022/11/21 05:01:28;;;;;;;311.60;65.30;;;;;;;1.97;100.00;100283.63;5009418;28;20026;-64
2022/11/21 05:03:53;;;;;;;485.77;80.03;;;;;;;2.34;100.00;100350.84;5009720;28;20124;-59
2022/11/21 05:06:18;;;;;;;363.58;67.22;;;;;;;2.00;100.00;100285.31;5009564;28;20068;-60
2022/11/21 05:08:44;;;;;;;445.77;77.50;;;;;;;2.32;100.00;100343.09;5009575;28;20758;-60
2022/11/21 05:13:53;;;;;;;281.95;61.30;;;;;;;2.15;100.00;100306.88;5009370;28;20779;-59
2022/11/21 05:16:19;;;;;;;417.42;71.85;;;;;;;1.94;100.00;100273.25;5009212;28;20059;-60
2022/11/21 05:18:44;;;;;;;320.08;66.55;;;;;;;2.36;100.00;100344.81;5009120;28;20030;-60
2022/11/21 05:21:09;;;;;;;330.13;65.68;;;;;;;2.30;100.00;100328.41;5009225;28;20034;-60
2022/11/21 05:23:34;;;;;;;282.70;60.63;;;;;;;2.33;100.00;100329.25;5009280;28;20498;-60
2022/11/21 05:26:00;;;;;;;309.83;64.60;;;;;;;2.06;100.00;100280.97;5009079;28;20117;-60
2022/11/21 05:28:25;;;;;;;403.25;74.57;;;;;;;2.30;100.00;100313.69;5007504;28;20051;-60
2022/11/21 05:30:50;;;;;;;270.77;61.20;;;;;;;2.12;100.00;100282.66;5009082;28;20034;-60
2022/11/21 05:33:16;;;;;;;271.10;61.58;;;;;;;2.35;100.00;100316.22;5007466;28;20504;-61
2022/11/21 05:35:41;;;;;;;281.83;62.70;;;;;;;2.35;100.00;100319.69;5008786;28;20030;-60
2022/11/21 05:38:07;;;;;;;444.23;77.25;;;;;;;1.98;100.00;100249.00;5009332;28;20041;-60
2022/11/21 05:40:32;;;;;;;320.13;64.07;;;;;;;2.20;100.00;100281.72;5009206;28;20064;-61
2022/11/21 05:45:41;;;;;;;312.60;63.70;;;;;;;2.31;100.00;100302.41;5008037;28;20057;-60
2022/11/21 05:48:06;;;;;;;392.00;75.07;;;;;;;1.95;100.00;100236.06;5008805;28;20510;-60
2022/11/21 05:50:33;;;;;;;309.17;62.05;;;;;;;1.86;100.00;100233.53;5009131;28;20065;-61
2022/11/21 05:53:03;;;;;;;181.77;50.85;;;;;;;2.23;100.00;100309.41;4991784;28;20060;-60
2022/11/21 05:55:28;;;;;;;291.73;59.42;;;;;;;1.83;100.00;100238.72;5007434;28;20533;-62
2022/11/21 05:57:57;;;;;;;234.07;56.10;;;;;;;2.11;100.00;100299.97;5008752;28;20061;-61
2022/11/21 06:00:22;;;;;;;220.60;53.58;;;;;;;1.68;100.00;100220.66;5007418;28;20033;-60
2022/11/21 06:05:31;;;;;;;300.35;61.15;;;;;;;2.03;100.00;100282.72;5008785;28;20045;-61
2022/11/21 06:07:57;;;;;;;233.48;53.78;;;;;;;1.65;100.00;100210.31;5006120;28;20042;-60
2022/11/21 06:10:22;;;;;;;207.93;52.95;;;;;;;2.00;100.00;100267.16;5005232;28;20143;-61
2022/11/21 06:12:47;;;;;;;236.65;55.65;;;;;;;1.97;100.00;100273.22;5008356;28;20042;-60
2022/11/21 06:15:13;;;;;;;291.38;60.63;;;;;;;1.95;100.00;100277.59;5008315;28;20042;-61
2022/11/21 06:17:38;;;;;;;263.70;56.67;;;;;;;1.65;100.00;100216.34;5007122;28;20046;-61
2022/11/21 06:20:04;;;;;;;246.65;56.42;;;;;;;2.00;100.00;100281.00;5008980;28;20073;-61
2022/11/21 06:22:29;;;;;;;152.90;49.20;;;;;;;2.07;100.00;100289.63;5008525;28;20066;-61
2022/11/21 06:24:54;;;;;;;205.77;52.70;;;;;;;1.74;100.00;100227.53;5008500;28;20045;-61
2022/11/21 06:27:20;;;;;;;210.55;52.60;;;;;;;2.10;100.00;100280.06;5008478;28;20042;-60
2022/11/21 06:29:45;;;;;;;310.83;62.42;;;;;;;2.14;100.00;100266.19;5007144;28;20042;-60
2022/11/21 06:32:10;;;;;;;295.05;61.95;;;;;;;2.15;100.00;100261.84;5008538;28;20083;-60
2022/11/21 06:34:36;;;;;;;242.82;56.40;;;;;;;2.13;100.00;100250.63;5007100;28;20421;-60
2022/11/21 06:37:02;;;;;;;206.35;52.92;;;;;;;1.95;100.00;100224.81;5007069;28;20068;-60
2022/11/21 06:39:27;;;;;;;234.40;56.95;;;;;;;2.15;100.00;100249.75;5008943;28;20526;-59
2022/11/21 06:41:52;;;;;;;210.68;53.15;;;;;;;2.16;100.00;100258.41;5011564;28;20041;-59
2022/11/21 06:44:18;;;;;;;294.65;60.80;;;;;;;2.18;100.00;100248.84;5010263;28;20034;-60
2022/11/21 06:46:43;;;;;;;225.18;56.47;;;;;;;2.18;100.00;100244.53;5011478;28;20497;-60
2022/11/21 06:49:09;;;;;;;231.80;55.67;;;;;;;2.19;100.00;100245.38;5011675;28;20034;-59
2022/11/21 06:51:34;;;;;;;211.90;55.75;;;;;;;2.18;100.00;100243.66;5011407;28;20117;-60
2022/11/21 06:53:59;;;;;;;149.18;48.38;;;;;;;2.21;100.00;100228.94;5011337;28;20116;-60
2022/11/21 06:56:27;;;;;;;145.18;49.22;;;;;;;1.82;100.00;100153.97;5011284;28;20116;-61
2022/11/21 06:58:53;;;;;;;153.50;47.42;;;;;;;2.11;100.00;100209.09;5009885;28;20437;-61
2022/11/21 07:01:18;;;;;;;129.65;47.38;;;;;;;1.94;100.00;100189.34;5011364;28;20038;-61
2022/11/21 07:03:44;;;;;;;136.02;47.13;;;;;;;2.14;100.00;100211.66;5010247;28;20045;-60
2022/11/21 07:06:09;;;;;;;151.30;48.88;;;;;;;1.78;100.00;100146.22;5010158;28;20026;-60
2022/11/21 07:08:35;;;;;;;152.68;48.58;;;;;;;2.16;100.00;100217.69;5011287;28;20034;-60
2022/11/21 07:11:02;;;;;;;205.85;57.42;;;;;;;2.17;100.00;100214.22;5009893;28;20046;-60
2022/11/21 07:13:28;;;;;;;191.15;52.08;;;;;;;2.16;100.00;100220.28;5011064;28;20041;-60
2022/11/21 07:15:59;;;;;;;139.85;48.65;;;;;;;2.15;100.00;100222.91;5011399;28;20342;-60
2022/11/21 07:18:25;;;;;;;168.18;49.67;;;;;;;1.74;100.00;100150.56;5010984;28;20046;-61
2022/11/21 07:20:50;;;;;;;191.98;50.65;;;;;;;2.13;100.00;100219.47;5009654;28;20030;-60
2022/11/21 07:23:16;;;;;;;129.32;46.72;;;;;;;1.83;100.00;100171.25;5010991;28;20038;-61
2022/11/21 07:25:41;;;;;;;177.70;50.30;;;;;;;1.99;100.00;100204.00;5011068;28;20485;-60
2022/11/21 07:28:07;;;;;;;184.85;51.50;;;;;;;2.15;100.00;100217.72;5009671;28;20030;-60
2022/11/21 07:30:33;;;;;;;201.45;51.17;;;;;;;2.15;100.00;100231.56;5011129;28;20045;-60
2022/11/21 07:33:01;;;;;;;172.80;49.55;;;;;;;2.17;100.00;100235.00;5009637;28;20189;-60
2022/11/21 07:35:27;;;;;;;290.88;56.85;;;;;;;2.12;100.00;100212.56;5025237;28;20034;-60
2022/11/21 07:37:53;;;;;;;250.93;57.22;;;;;;;2.17;100.00;100219.44;5010353;28;20030;-59
2022/11/21 07:40:19;;;;;;;180.98;51.10;;;;;;;1.81;100.00;100154.00;5009211;28;20425;-59
2022/11/21 07:42:44;;;;;;;206.73;53.60;;;;;;;2.25;100.00;100229.75;5010298;28;20489;-59
2022/11/21 07:45:11;;;;;;;153.93;49.63;;;;;;;2.21;100.00;100196.91;5010010;28;20042;-59
2022/11/21 07:47:36;;;;;;;162.35;50.33;;;;;;;1.85;100.00;100124.53;5009323;28;20045;-60
2022/11/21 07:50:02;;;;;;;199.75;52.13;;;;;;;2.10;100.00;100159.78;5010188;28;20452;-60
2022/11/21 07:52:29;;;;;;;161.80;48.10;;;;;;;2.40;100.00;100201.03;5010660;28;20029;-61
2022/11/21 07:54:55;;;;;;;200.00;51.85;;;;;;;2.15;100.00;100145.91;5008919;28;20461;-67
2022/11/21 07:57:20;;;;;;;159.73;47.30;;;;;;;2.47;100.00;100181.94;5010488;28;20021;-68
2022/11/21 07:59:45;;;;;;;240.40;51.95;;;;;;;2.61;100.00;100194.78;5008791;28;20121;-68
2022/11/21 08:02:19;;;;;;;337.60;60.67;;;;;;;2.63;100.00;100188.69;5010076;28;20065;-67
2022/11/21 08:04:45;;;;;;;262.25;53.95;;;;;;;2.42;100.00;100151.69;5010298;28;20552;-68
2022/11/21 08:07:10;;;;;;;294.38;53.53;;;;;;;2.38;100.00;100129.22;5009278;28;20037;-68
2022/11/21 08:09:35;;;;;;;320.95;56.72;;;;;;;2.70;100.00;100181.69;5010212;28;20042;-67
2022/11/21 08:12:00;;;;;;;384.10;65.07;;;;;;;2.28;100.00;100093.84;5010294;28;20038;-67
2022/11/21 08:14:26;;;;;;;384.27;62.47;;;;;;;2.79;100.00;100166.84;5009328;28;20098;-67
2022/11/21 08:16:51;;;;;;;403.38;65.40;;;;;;;2.84;100.00;100162.47;5010431;28;20038;-66
2022/11/21 08:19:17;;;;;;;167.75;43.50;;;;;;;2.89;100.00;100166.75;5010467;28;20034;-67
2022/11/21 08:21:42;;;;;;;322.88;59.08;;;;;;;2.63;100.00;100110.72;5010122;28;20030;-67
2022/11/21 08:24:12;;;;;;;263.30;50.45;;;;;;;2.91;100.00;100163.25;5009898;28;20034;-67
2022/11/21 08:26:37;;;;;;;317.42;57.47;;;;;;;2.80;100.00;100123.53;5009761;28;20042;-66
2022/11/21 08:29:03;;;;;;;292.23;56.80;;;;;;;3.03;100.00;100157.91;5008960;28;20036;-65
2022/11/21 08:31:28;;;;;;;346.65;56.58;;;;;;;3.08;100.00;100148.31;5009737;28;20517;-67
2022/11/21 08:33:56;;;;;;;269.65;53.17;;;;;;;3.08;100.00;100147.44;5009118;28;20064;-67
2022/11/21 08:36:22;;;;;;;317.77;55.53;;;;;;;2.80;100.00;100094.94;5009935;28;20044;-66
2022/11/21 08:38:47;;;;;;;236.95;51.45;;;;;;;3.21;100.00;100151.59;5008599;28;20167;-67
2022/11/21 08:43:56;;;;;;;359.42;62.92;;;;;;;3.30;100.00;100146.25;5009675;28;20044;-67
2022/11/21 08:46:26;;;;;;;246.70;50.50;;;;;;;3.32;100.00;100141.91;5009620;28;20038;-66
2022/11/21 08:48:52;;;;;;;139.38;41.65;;;;;;;3.39;100.00;100147.00;5009629;28;20072;-68
2022/11/21 08:51:17;;;;;;;177.43;45.20;;;;;;;3.37;100.00;100124.47;5009411;28;20383;-66
2022/11/21 08:53:42;;;;;;;163.23;42.72;;;;;;;3.45;100.00;100138.22;5009424;28;20086;-67
2022/11/21 08:56:08;;;;;;;107.53;38.25;;;;;;;3.03;100.00;100063.44;5009720;28;20038;-67
2022/11/21 08:58:33;;;;;;;177.15;46.30;;;;;;;3.33;100.00;100112.41;5008351;28;20151;-66
2022/11/21 09:00:59;;;;;;;117.13;42.63;;;;;;;3.41;100.00;100124.41;5008449;28;20355;-66
2022/11/21 09:03:24;;;;;;;93.88;38.05;;;;;;;3.16;100.00;100070.16;5007502;28;20047;-67
2022/11/21 09:05:50;;;;;;;119.55;40.05;;;;;;;3.19;100.00;100075.31;5008033;28;20115;-67
2022/11/21 09:08:15;;;;;;;84.95;36.50;;;;;;;3.47;100.00;100114.81;5008136;28;20142;-67
2022/11/21 09:10:40;;;;;;;71.28;33.38;;;;;;;3.46;100.00;100118.28;5009371;28;20026;-66
2022/11/21 09:13:05;;;;;;;71.35;33.33;;;;;;;3.48;100.00;100116.50;5009252;28;20045;-66
2022/11/21 09:18:32;;;;;;;66.97;33.42;;;;;;;3.57;100.00;100087.75;4948754;29;20055;-66
2022/11/21 09:20:57;;;;;;;65.78;33.97;;;;;;;3.35;100.00;100038.69;4996582;28;20099;-66
2022/11/21 09:23:22;;;;;;;63.83;31.60;;;;;;;3.64;100.00;100077.22;5009098;28;20042;-66
2022/11/21 09:25:47;;;;;;;77.05;34.80;;;;;;;3.76;100.00;100086.59;5009276;28;20553;-67
2022/11/21 09:28:13;;;;;;;66.25;31.08;;;;;;;3.79;100.00;100086.53;5009177;28;20040;-67
2022/11/21 09:30:40;;;;;;;67.25;32.88;;;;;;;3.66;100.00;100049.44;5009392;28;20454;-66
2022/11/21 09:33:08;;;;;;;63.50;32.53;;;;;;;3.71;100.00;100024.19;5007294;28;20038;-67
2022/11/21 09:35:33;;;;;;;69.03;31.55;;;;;;;3.80;100.00;100029.22;5007758;28;20042;-67
2022/11/21 09:37:59;;;;;;;64.10;31.13;;;;;;;3.92;100.00;100034.22;5009066;28;20149;-67
2022/11/21 09:40:24;;;;;;;66.97;32.47;;;;;;;3.99;100.00;100006.31;5007778;28;20065;-66
2022/11/21 09:43:02;;;;;;;62.60;30.35;;;;;;;4.46;100.00;100062.72;5008039;28;20034;-66
2022/11/21 09:45:36;;;;;;;63.05;29.92;;;;;;;4.49;100.00;100050.44;5007686;28;20061;-67
2022/11/21 09:48:07;;;;;;;58.42;29.30;;;;;;;4.36;100.00;100012.53;5007919;28;20033;-67
2022/11/21 09:50:38;;;;;;;80.65;30.38;;;;;;;4.81;100.00;100064.59;5009365;28;20038;-66
2022/11/21 09:53:16;;;;;;;53.75;25.38;;;;;;;4.92;100.00;100049.56;5007699;28;20600;-65
2022/11/21 09:55:50;;;;;;;41.80;21.65;;;;;;;4.96;100.00;100010.34;5007363;28;20041;-67
2022/11/21 09:58:45;;;;;;;37.05;19.73;;;;;;;5.53;100.00;100059.44;5007898;28;20029;-66
2022/11/21 10:01:11;;;;;;;41.83;20.02;;;;;;;5.57;100.00;100006.28;5018959;28;20050;-66
2022/11/21 10:03:42;;;;;;;42.10;18.27;;;;;;;5.75;100.00;100007.56;5007694;28;20505;-66
2022/11/21 10:06:18;;;;;;;36.65;17.52;;;;;;;6.19;100.00;100046.44;5008652;28;20109;-67
2022/11/21 10:08:48;;;;;;;44.55;16.85;;;;;;;6.27;100.00;100041.00;5008619;28;20026;-66
2022/11/21 10:14:56;;;;;;;24.48;14.55;;;;;;;6.55;100.00;100031.47;5008541;28;20045;-67
2022/11/21 10:17:34;;;;;;;31.67;15.00;;;;;;;6.50;100.00;100021.16;5011093;28;20040;-66
2022/11/21 10:20:19;;;;;;;28.15;14.93;;;;;;;6.63;100.00;100029.50;5011254;28;20046;-67
2022/11/21 10:23:02;;;;;;;27.08;12.32;;;;;;;6.34;100.00;99951.06;5010673;28;20045;-66
2022/11/21 10:25:41;;;;;;;26.75;13.27;;;;;;;6.65;100.00;100002.44;5009875;28;20041;-66
2022/11/21 10:28:17;;;;;;;24.13;12.35;;;;;;;6.86;100.00;100024.44;5009369;28;20034;-67
2022/11/21 10:30:43;;;;;;;24.63;13.07;;;;;;;6.56;100.00;99947.78;5009215;28;20041;-67
2022/11/21 10:33:14;;;;;;;24.48;12.40;;;;;;;6.66;100.00;99941.34;5009084;28;20060;-67
2022/11/21 10:35:43;;;;;;;25.27;12.10;;;;;;;6.74;100.00;99954.22;5008953;28;20033;-67
2022/11/21 10:38:25;;;;;;;26.23;12.27;;;;;;;6.74;100.00;99941.97;5009250;28;20413;-66
2022/11/21 10:41:02;;;;;;;25.48;13.00;;;;;;;7.12;100.00;99987.84;4992597;28;20026;-68
2022/11/21 10:46:34;;;;;;;23.75;12.25;;;;;;;7.13;100.00;99986.09;5009665;28;20044;-67
2022/11/21 10:49:01;;;;;;;22.38;11.82;;;;;;;6.80;100.00;99926.09;5010365;28;20053;-67
2022/11/21 10:51:36;;;;;;;18.90;11.07;;;;;;;7.17;100.00;99982.50;5008596;28;20175;-67
2022/11/21 10:56:51;;;;;;;18.55;11.75;;;;;;;7.07;100.00;99924.34;5010197;28;20087;-68
2022/11/21 10:59:28;;;;;;;18.70;10.35;;;;;;;7.04;100.00;99907.91;5010170;28;20042;-67
2022/11/21 11:01:59;;;;;;;39.17;13.57;;;;;;;7.38;100.00;99941.69;5008808;28;20044;-66
2022/11/21 11:04:31;;;;;;;29.17;14.82;;;;;;;7.49;100.00;99963.97;5008544;28;20439;-66
2022/11/21 11:06:58;;;;;;;27.10;12.90;;;;;;;7.53;100.00;99947.22;5008570;28;20516;-66
2022/11/21 11:09:32;;;;;;;25.45;14.05;;;;;;;7.59;100.00;99946.19;5008638;28;20068;-67
2022/11/21 11:12:23;;;;;;;26.77;14.60;;;;;;;7.59;100.00;99952.25;5025074;28;20450;-67
2022/11/21 11:14:53;;;;;;;30.83;13.70;;;;;;;7.25;100.00;99881.88;5009568;28;20117;-67
2022/11/21 11:17:30;;;;;;;26.52;13.32;;;;;;;7.41;100.00;99925.88;5008415;28;20030;-66
2022/11/21 11:20:05;;;;;;;24.75;12.20;;;;;;;7.14;100.00;99880.53;4991538;28;20478;-66
2022/11/21 11:22:31;;;;;;;24.40;12.68;;;;;;;7.39;100.00;99920.66;5008167;28;20562;-66
2022/11/21 11:24:56;;;;;;;21.02;10.95;;;;;;;7.28;100.00;99923.66;5008182;28;20050;-66
2022/11/21 11:27:28;;;;;;;20.10;9.30;;;;;;;7.31;100.00;99917.47;4991757;28;20041;-65
2022/11/21 11:29:53;;;;;;;15.68;9.40;;;;;;;7.34;100.00;99922.59;5008428;28;20060;-66